• Join FlightAware (Why Join?)
  • Login
  • US Flag GB Flag 
06:12 EDT


 

Airport Tracker/Info


-or-


 

Live Flight TrackerFlight Track Log ✈ AWE1262 ✈ 03-May-2013 ✈ KPHL - KMHT

Flight Track Log - Related Links

Times and Time Zones

All times are in EDT time to prevent confusion due to time zone crossing. See the AWE1262 flight status page for this flight to view local times or setup timezone preferences in your user account.

Time Position Orientation Groundspeed Altitude Reporting Facility
EDT Latitude Longitude Course Direction KTS MPH feet Rate Location/Type
21:44 39.8833 -75.2167 37° Northeast 147 169 900  Level Philadelphia TRACON
21:44 39.8667 -75.1833 123° Southeast 171 197 2,500 2,580 Climbing Philadelphia TRACON
21:46 39.8104 -74.8351 105° East  Level FlightAware Approximate
21:46 39.8667 -75.1000 90° East 203 234 5,600  Level Philadelphia TRACON
21:47 39.7836 -74.7013 105° East  Level FlightAware Approximate
21:47 39.8500 -75.0167 105° East 271 312 8,900  Level Philadelphia TRACON
21:48 39.8667 -74.6167 37° Northeast  Level FlightAware Approximate
21:49 39.9544 -74.5456 37° Northeast  Level FlightAware Approximate
21:49 39.8028 -74.7456 103° East 328 377 14,800  Level New York Center
21:50 39.8625 -74.6436 53° Northeast 320 368 17,700 2,580 Climbing New York Center
21:51 39.9481 -74.5697 34° Northeast 326 375 20,100 2,460 Climbing New York Center
21:52 40.0408 -74.4744 38° Northeast 362 417 22,600 2,220 Climbing New York Center
21:53 40.1269 -74.3869 38° Northeast 382 440 24,600 1,800 Climbing New York Center
21:54 40.2347 -74.3408 18° North 387 445 26,300 1,860 Climbing New York Center
21:55 40.3458 -74.3167 North 392 451 28,300 1,320 Climbing New York Center
21:56 40.4592 -74.2925 North 398 458 29,000 240 Climbing New York Center
21:58 40.6481 -74.2289 14° North 426 490 29,000  Level Boston Center
21:59 40.7389 -74.1467 34° Northeast 433 498 29,000  Level Boston Center
22:00 40.8564 -74.0975 18° North 433 498 29,000  Level Boston Center
22:01 40.9775 -74.0786 North 428 493 29,000  Level Boston Center
22:02 41.0986 -74.0597 North 428 493 29,000  Level Boston Center
22:03 41.2200 -74.0406 North 428 493 29,000  Level Boston Center
22:04 41.3411 -74.0217 North 433 498 29,000  Level Boston Center
22:05 41.4544 -73.9633 21° North 427 491 29,000  Level Boston Center
22:06 41.5428 -73.9044 27° Northeast 433 498 29,000  Level Boston Center
22:07 41.6753 -73.8103 28° Northeast 438 504 29,000  Level Boston Center
22:08 41.7822 -73.7403 26° Northeast 438 504 29,000  Level Boston Center
22:09 41.8978 -73.6617 27° Northeast 429 494 29,000  Level Boston Center
22:10 42.0069 -73.5883 27° Northeast 429 494 29,000  Level Boston Center
22:11 42.1078 -73.5147 28° Northeast 441 507 29,000 -780 Level Boston Center
22:12 42.2167 -73.4381 28° Northeast 441 507 27,500 -1,500 Descending Boston Center
22:13 42.3194 -73.3667 27° Northeast 425 489 26,000 -1,500 Descending Boston Center
22:14 42.4222 -73.2922 28° Northeast 410 472 24,600 -1,500 Descending Boston Center
22:15 42.5206 -73.2203 28° Northeast 410 472 23,100 -1,980 Descending Boston Center
22:16 42.5964 -73.1169 45° Northeast 400 460 20,700 -1,920 Descending Boston Center
22:17 42.6306 -72.9706 72° East 363 418 19,300 -1,380 Descending Boston Center
22:18 42.6539 -72.8494 75° East 356 410 18,000 -1,380 Descending Boston Center
22:19 42.6772 -72.7111 77° East 362 417 16,600 -1,380 Descending Boston Center
22:20 42.7047 -72.5756 75° East 367 422 15,300 -1,320 Descending Boston Center
22:21 42.7275 -72.4458 77° East 362 417 14,000 -1,200 Descending Boston Center
22:22 42.7506 -72.3269 75° East 341 392 12,900 -1,260 Descending Boston Center
22:23 42.7731 -72.1883 77° East 333 383 11,500 -1,200 Descending Boston Center
22:24 42.7917 -72.0892 76° East 328 377 10,500 -1,200 Descending Boston Center
22:25 42.8267 -71.9842 66° East 283 326 9,200 -1,320 Descending Boston Center
22:26 42.8619 -71.9047 59° Northeast 261 300 7,900 -1,680 Descending Boston Center
22:27 42.9031 -71.8136 58° Northeast 256 295 5,900 -1,860 Descending Boston Center
22:28 42.9358 -71.7397 59° Northeast 256 295 4,200 -1,080 Descending Boston Center
22:29 42.9728 -71.6542 59° Northeast 245 282 3,800 -600 Descending Boston Center
22:30 42.9953 -71.5914 64° Northeast 223 257 3,000 -840 Descending Boston Center